Time;durP1;ratioP1;P1;durP2;ratioP2;P2;SDS_P1;SDS_P2;PMS_P1;PMS_P2;Temp;Humidity;BMP_temperature;BMP_pressure;BME280_temperature;BME280_humidity;BME280_pressure;Samples;Min_cycle;Max_cycle;Signal;HPM_P1;HPM_P2
2022/03/15 00:04:50;;;;;;;;;;;;;;;22.07;26.16;96668.44;10441328;28;2274;-46
2022/03/15 00:09:50;;;;;;;;;;;;;;;22.09;26.13;96663.69;10442319;28;2312;-46
2022/03/15 00:14:52;;;;;;;;;;;;;;;22.09;25.96;96662.91;10442934;28;1889;-50
2022/03/15 00:19:52;;;;;;;;;;;;;;;22.11;26.05;96653.69;10440701;28;1915;-47
2022/03/15 00:24:53;;;;;;;;;;;;;;;22.10;25.96;96657.34;10441957;28;1905;-51
2022/03/15 00:29:53;;;;;;;;;;;;;;;22.11;25.82;96650.25;10443412;28;1869;-46
2022/03/15 00:34:53;;;;;;;;;;;;;;;22.12;25.94;96652.59;10440851;28;1849;-50
2022/03/15 00:39:54;;;;;;;;;;;;;;;22.11;25.89;96653.69;10441701;28;1850;-50
2022/03/15 00:44:54;;;;;;;;;;;;;;;22.10;25.57;96659.19;10442142;28;1906;-51
2022/03/15 00:49:54;;;;;;;;;;;;;;;22.13;25.84;96667.41;10438779;28;1892;-47
2022/03/15 00:54:55;;;;;;;;;;;;;;;22.13;25.76;96656.03;10440213;28;1799;-49
2022/03/15 00:59:55;;;;;;;;;;;;;;;22.11;25.64;96642.31;10434801;28;1884;-47
2022/03/15 01:04:55;;;;;;;;;;;;;;;22.09;25.91;96642.56;10434408;28;1914;-46
2022/03/15 01:09:56;;;;;;;;;;;;;;;22.08;25.54;96633.06;10440584;28;1893;-46
2022/03/15 01:14:56;;;;;;;;;;;;;;;22.08;25.58;96640.97;10439150;28;1814;-46
2022/03/15 01:19:56;;;;;;;;;;;;;;;22.10;25.75;96643.34;10439718;28;1806;-46
2022/03/15 01:24:57;;;;;;;;;;;;;;;22.09;25.44;96634.63;10418557;28;1969;-46
2022/03/15 01:30:00;;;;;;;;;;;;;;;22.10;25.66;96636.22;10438746;28;2033;-50
2022/03/15 01:35:01;;;;;;;;;;;;;;;22.10;25.43;96632.78;10438279;28;1751;-46
2022/03/15 01:40:01;;;;;;;;;;;;;;;22.11;25.55;96627.28;10430449;28;2283;-48
2022/03/15 01:45:02;;;;;;;;;;;;;;;22.09;25.60;96613.50;10449975;28;1973;-50
2022/03/15 01:50:03;;;;;;;;;;;;;;;22.09;25.54;96613.50;10440131;28;1923;-51
2022/03/15 01:55:04;;;;;;;;;;;;;;;22.09;25.44;96616.16;10441119;28;1847;-49
2022/03/15 02:00:05;;;;;;;;;;;;;;;22.08;25.51;96606.66;10430888;28;1851;-49
2022/03/15 02:05:05;;;;;;;;;;;;;;;22.10;25.49;96606.38;10437076;28;1909;-48
2022/03/15 02:10:06;;;;;;;;;;;;;;;22.10;25.53;96588.72;10437190;28;1823;-48
2022/03/15 02:15:07;;;;;;;;;;;;;;;22.09;25.62;96576.53;10437988;28;1855;-46
2022/03/15 02:20:08;;;;;;;;;;;;;;;22.10;25.51;96579.97;10439305;28;1856;-46
2022/03/15 02:25:09;;;;;;;;;;;;;;;22.10;25.53;96572.88;10485065;22;2292;-54
2022/03/15 02:30:09;;;;;;;;;;;;;;;22.09;25.35;96573.13;10474702;28;1856;-53
2022/03/15 02:35:10;;;;;;;;;;;;;;;22.08;25.36;96558.34;10439557;28;1759;-52
2022/03/15 02:40:10;;;;;;;;;;;;;;;22.08;25.35;96561.78;10437152;28;1889;-54
2022/03/15 02:45:11;;;;;;;;;;;;;;;22.08;25.20;96580.25;10424676;28;2061;-51
2022/03/15 02:50:12;;;;;;;;;;;;;;;22.09;25.27;96568.63;10426805;28;1928;-55
2022/03/15 02:55:13;;;;;;;;;;;;;;;22.10;25.20;96569.41;10428947;28;1910;-53
2022/03/15 03:00:15;;;;;;;;;;;;;;;22.08;24.94;96550.41;10429163;28;2286;-52
2022/03/15 03:05:16;;;;;;;;;;;;;;;22.08;25.07;96542.50;10436174;28;1978;-53
2022/03/15 03:10:16;;;;;;;;;;;;;;;22.10;25.13;96548.28;10428218;28;2261;-52
2022/03/15 03:15:20;;;;;;;;;;;;;;;22.10;25.13;96537.75;10424124;28;2106;-55
2022/03/15 03:20:21;;;;;;;;;;;;;;;22.07;25.12;96538.28;10433434;28;1896;-53
2022/03/15 03:25:22;;;;;;;;;;;;;;;22.06;25.07;96537.47;10427276;28;1979;-56
2022/03/15 03:30:22;;;;;;;;;;;;;;;22.06;25.30;96534.03;10430062;28;1985;-54
2022/03/15 03:35:24;;;;;;;;;;;;;;;22.06;24.95;96540.13;10435949;28;1912;-53
2022/03/15 03:40:24;;;;;;;;;;;;;;;22.07;24.85;96533.78;10426656;28;1852;-51
2022/03/15 03:45:24;;;;;;;;;;;;;;;22.10;24.95;96532.47;10449472;28;1942;-54
2022/03/15 03:50:25;;;;;;;;;;;;;;;22.07;25.14;96527.72;10437393;28;1955;-53
2022/03/15 03:55:26;;;;;;;;;;;;;;;22.09;24.83;96530.88;10437667;28;1936;-52
2022/03/15 04:00:26;;;;;;;;;;;;;;;22.07;24.88;96527.72;10434040;28;2062;-55
2022/03/15 04:05:30;;;;;;;;;;;;;;;22.03;25.01;96526.66;10433333;28;1906;-54
2022/03/15 04:10:32;;;;;;;;;;;;;;;22.03;25.09;96522.16;10431983;28;1981;-53
2022/03/15 04:15:32;;;;;;;;;;;;;;;22.06;24.85;96526.91;10432159;28;1837;-51
2022/03/15 04:20:33;;;;;;;;;;;;;;;22.03;24.97;96537.22;10425667;28;1920;-54
2022/03/15 04:25:33;;;;;;;;;;;;;;;22.05;25.00;96533.25;10424384;28;1965;-55
2022/03/15 04:30:33;;;;;;;;;;;;;;;22.02;25.02;96536.44;10428885;28;2041;-52
2022/03/15 04:35:34;;;;;;;;;;;;;;;22.01;24.64;96532.19;10426460;28;1931;-54
2022/03/15 04:40:35;;;;;;;;;;;;;;;22.02;24.67;96531.16;10422690;28;1864;-52
2022/03/15 04:45:36;;;;;;;;;;;;;;;22.03;24.74;96542.50;10426888;28;1987;-50
2022/03/15 04:50:36;;;;;;;;;;;;;;;22.02;24.80;96535.63;10430311;28;2157;-53
2022/03/15 04:55:36;;;;;;;;;;;;;;;22.01;24.98;96534.81;10426418;28;2053;-52
2022/03/15 05:00:37;;;;;;;;;;;;;;;22.02;24.79;96539.06;10427235;28;1856;-54
2022/03/15 05:05:37;;;;;;;;;;;;;;;22.02;24.68;96543.53;10416283;28;1975;-54
2022/03/15 05:15:56;;;;;;;;;;;;;;;22.00;24.79;96538.53;10429356;28;1931;-52
2022/03/15 05:20:57;;;;;;;;;;;;;;;22.00;24.63;96532.47;10413826;28;2044;-53
2022/03/15 05:25:57;;;;;;;;;;;;;;;22.01;24.67;96540.09;10432636;28;1868;-55
2022/03/15 05:30:58;;;;;;;;;;;;;;;22.01;24.85;96523.50;10432954;28;2046;-54
2022/03/15 05:35:58;;;;;;;;;;;;;;;22.00;24.74;96532.47;10422597;28;1884;-51
2022/03/15 05:40:59;;;;;;;;;;;;;;;22.03;24.57;96535.34;10436609;28;1920;-52
2022/03/15 05:45:59;;;;;;;;;;;;;;;22.01;24.55;96548.03;10430987;28;1959;-55
2022/03/15 05:50:59;;;;;;;;;;;;;;;22.01;24.49;96553.31;10426237;28;1956;-52
2022/03/15 05:56:00;;;;;;;;;;;;;;;22.01;24.57;96568.38;10445414;28;1908;-56
2022/03/15 06:01:00;;;;;;;;;;;;;;;22.00;24.69;96553.56;10428335;28;1924;-52
2022/03/15 06:06:01;;;;;;;;;;;;;;;22.00;24.47;96551.75;10421047;28;2014;-55
2022/03/15 06:11:03;;;;;;;;;;;;;;;22.01;24.33;96550.66;10426730;28;1959;-53
2022/03/15 06:16:03;;;;;;;;;;;;;;;22.01;24.50;96555.19;10431498;28;1962;-54
2022/03/15 06:21:04;;;;;;;;;;;;;;;22.01;24.35;96550.66;10437107;28;2179;-53
2022/03/15 06:26:04;;;;;;;;;;;;;;;22.00;24.35;96556.22;10429120;28;1977;-55
2022/03/15 06:31:04;;;;;;;;;;;;;;;22.00;24.27;96558.84;10440593;28;1952;-54
2022/03/15 06:36:11;;;;;;;;;;;;;;;21.99;24.46;96555.41;10442256;28;2054;-55
2022/03/15 06:41:11;;;;;;;;;;;;;;;22.01;24.30;96545.38;10435237;28;1973;-53
2022/03/15 06:46:12;;;;;;;;;;;;;;;22.02;24.43;96549.63;10439695;28;1840;-54
2022/03/15 06:51:13;;;;;;;;;;;;;;;22.00;24.34;96543.81;10428347;28;1920;-55
2022/03/15 06:56:14;;;;;;;;;;;;;;;22.04;24.54;96546.72;10430303;28;1997;-54
2022/03/15 07:01:14;;;;;;;;;;;;;;;22.08;24.69;96540.66;10432578;28;1914;-55
2022/03/15 07:06:14;;;;;;;;;;;;;;;22.03;25.23;96545.91;10433142;28;1833;-58
2022/03/15 07:11:15;;;;;;;;;;;;;;;22.05;25.21;96533.25;10428384;28;2218;-60
2022/03/15 07:16:16;;;;;;;;;;;;;;;22.10;25.15;96535.09;10431830;28;1985;-57
2022/03/15 07:21:16;;;;;;;;;;;;;;;22.11;25.29;96548.06;10428679;28;1979;-58
2022/03/15 07:26:16;;;;;;;;;;;;;;;22.09;25.40;96558.06;10425473;28;1880;-53
2022/03/15 07:31:17;;;;;;;;;;;;;;;22.11;25.33;96560.47;10429408;28;1741;-56
2022/03/15 07:36:18;;;;;;;;;;;;;;;22.14;25.19;96559.91;10436602;28;1863;-58
2022/03/15 07:41:21;;;;;;;;;;;;;;;22.16;25.18;96589.50;10427550;28;1984;-57
2022/03/15 07:46:22;;;;;;;;;;;;;;;22.14;25.37;96576.56;10435334;28;1822;-59
2022/03/15 07:51:24;;;;;;;;;;;;;;;22.17;25.24;96575.25;10435768;28;1927;-57
2022/03/15 07:56:24;;;;;;;;;;;;;;;22.18;25.39;96571.53;10429958;28;1906;-56
2022/03/15 08:01:25;;;;;;;;;;;;;;;22.17;25.52;96568.13;10434617;28;1906;-53
2022/03/15 08:06:25;;;;;;;;;;;;;;;22.17;25.53;96554.91;10426815;28;1847;-52
2022/03/15 08:11:26;;;;;;;;;;;;;;;22.17;25.26;96559.41;10428771;28;1927;-53
2022/03/15 08:16:27;;;;;;;;;;;;;;;22.16;25.59;96568.38;10431775;28;1763;-57
2022/03/15 08:21:28;;;;;;;;;;;;;;;22.14;25.42;96559.91;10423468;28;1984;-52
2022/03/15 08:26:28;;;;;;;;;;;;;;;22.14;25.60;96550.16;10447678;23;2344;-50
2022/03/15 08:31:29;;;;;;;;;;;;;;;22.11;25.54;96545.41;10435068;28;1814;-53
2022/03/15 08:36:30;;;;;;;;;;;;;;;22.11;25.45;96540.13;10440638;28;1788;-47
2022/03/15 08:41:31;;;;;;;;;;;;;;;22.06;25.72;96532.19;10436196;28;2150;-50
2022/03/15 08:46:31;;;;;;;;;;;;;;;22.05;25.79;96541.16;10436438;28;1807;-49
2022/03/15 08:51:32;;;;;;;;;;;;;;;22.05;25.73;96541.16;10435895;28;1918;-50
2022/03/15 08:56:32;;;;;;;;;;;;;;;22.04;25.82;96546.72;10439329;28;1808;-50
2022/03/15 09:01:33;;;;;;;;;;;;;;;22.02;25.73;96546.19;10428622;28;2258;-46
2022/03/15 09:06:33;;;;;;;;;;;;;;;22.02;25.58;96531.16;10435537;28;1821;-47
2022/03/15 09:11:34;;;;;;;;;;;;;;;22.00;25.67;96533.25;10435118;28;1934;-51
2022/03/15 09:16:34;;;;;;;;;;;;;;;22.00;25.68;96514.78;10428196;28;1949;-49
2022/03/15 09:21:34;;;;;;;;;;;;;;;22.00;25.44;96501.56;10428432;28;1915;-52
2022/03/15 09:26:36;;;;;;;;;;;;;;;22.03;25.59;96494.97;10435987;28;1889;-49
2022/03/15 09:31:36;;;;;;;;;;;;;;;22.01;25.38;96492.59;10437055;28;1838;-46
2022/03/15 09:36:36;;;;;;;;;;;;;;;22.01;25.29;96500.50;10435113;28;1766;-47
2022/03/15 09:41:38;;;;;;;;;;;;;;;22.05;25.13;96493.63;10431359;28;1910;-51
2022/03/15 09:46:42;;;;;;;;;;;;;;;22.04;25.44;96505.28;10427482;28;1980;-49
2022/03/15 09:51:43;;;;;;;;;;;;;;;22.03;25.25;96479.91;10434027;28;2232;-52
2022/03/15 09:56:43;;;;;;;;;;;;;;;22.08;25.23;96501.03;10431573;28;1853;-51
2022/03/15 10:01:44;;;;;;;;;;;;;;;22.07;25.30;96491.53;10429675;28;1989;-49
2022/03/15 10:06:44;;;;;;;;;;;;;;;22.06;25.24;96492.59;10434230;28;1907;-47
2022/03/15 10:11:45;;;;;;;;;;;;;;;22.06;25.25;96476.75;10442218;28;1908;-48
2022/03/15 10:16:46;;;;;;;;;;;;;;;22.11;25.34;96489.16;10434789;28;1759;-52
2022/03/15 10:21:50;;;;;;;;;;;;;;;22.10;25.58;96483.09;10417977;28;1979;-48
2022/03/15 10:26:51;;;;;;;;;;;;;;;22.11;25.50;96468.84;10437057;28;1981;-46
2022/03/15 10:31:52;;;;;;;;;;;;;;;22.11;25.51;96450.38;10437643;28;1809;-50
2022/03/15 10:36:54;;;;;;;;;;;;;;;22.08;25.42;96435.03;10436674;28;1893;-49
2022/03/15 10:42:08;;;;;;;;;;;;;;;22.18;25.72;96440.31;10430055;28;1967;-46
2022/03/15 10:47:15;;;;;;;;;;;;;;;22.14;25.58;96459.56;10432295;28;1760;-50
2022/03/15 10:52:27;;;;;;;;;;;;;;;22.15;26.09;96450.63;10433210;28;1818;-47
2022/03/15 10:57:28;;;;;;;;;;;;;;;22.20;25.90;96438.19;10431980;28;2141;-50
2022/03/15 11:02:29;;;;;;;;;;;;;;;22.17;25.57;96438.72;10434734;28;1989;-46
2022/03/15 11:07:39;;;;;;;;;;;;;;;22.17;25.62;96440.56;10439206;28;1957;-49
2022/03/15 11:12:59;;;;;;;;;;;;;;;22.20;26.09;96416.25;10441841;28;2091;-49
2022/03/15 11:18:00;;;;;;;;;;;;;;;22.20;26.01;96389.84;10444148;28;1965;-48
2022/03/15 11:23:01;;;;;;;;;;;;;;;22.23;25.98;96403.34;10441717;28;1913;-50
2022/03/15 11:28:03;;;;;;;;;;;;;;;22.21;25.83;96402.81;10445422;28;1793;-50
2022/03/15 11:33:03;;;;;;;;;;;;;;;22.20;26.02;96417.06;10440509;28;1764;-50
2022/03/15 11:38:05;;;;;;;;;;;;;;;22.19;26.28;96406.78;10441959;28;1815;-51
2022/03/15 11:43:21;;;;;;;;;;;;;;;22.18;26.47;96382.22;10443372;28;1965;-51
2022/03/15 11:48:23;;;;;;;;;;;;;;;22.17;26.68;96372.72;10447447;28;1895;-52
2022/03/15 11:53:32;;;;;;;;;;;;;;;22.13;26.63;96376.97;10441289;28;1909;-48
2022/03/15 11:58:33;;;;;;;;;;;;;;;22.04;26.87;96373.25;10438412;28;1768;-47
2022/03/15 12:03:43;;;;;;;;;;;;;;;22.09;26.36;96354.75;10437668;28;2008;-47
2022/03/15 12:08:51;;;;;;;;;;;;;;;22.09;26.47;96331.00;10445410;28;1931;-48
2022/03/15 12:13:53;;;;;;;;;;;;;;;22.06;27.24;96326.28;10439280;28;1874;-47
2022/03/15 12:19:13;;;;;;;;;;;;;;;22.00;27.71;96327.34;10446420;28;1790;-47
2022/03/15 12:24:16;;;;;;;;;;;;;;;22.05;27.75;96314.13;10440864;28;1985;-48
2022/03/15 12:29:17;;;;;;;;;;;;;;;22.14;27.40;96311.72;10443383;28;1821;-47
2022/03/15 12:34:17;;;;;;;;;;;;;;;22.02;27.66;96314.66;10439155;28;1918;-51
2022/03/15 12:39:19;;;;;;;;;;;;;;;21.97;27.78;96296.19;10440343;28;1846;-51
2022/03/15 12:44:37;;;;;;;;;;;;;;;21.98;27.62;96287.22;10440544;28;1914;-48
2022/03/15 12:49:37;;;;;;;;;;;;;;;21.97;27.66;96284.88;10435876;28;1906;-51
2022/03/15 12:54:38;;;;;;;;;;;;;;;22.06;27.43;96276.09;10446236;28;1833;-49
2022/03/15 12:59:39;;;;;;;;;;;;;;;22.03;27.10;96262.66;10439288;28;2286;-50
2022/03/15 13:04:42;;;;;;;;;;;;;;;21.99;27.13;96259.75;10440490;28;1969;-52
2022/03/15 13:09:42;;;;;;;;;;;;;;;22.01;27.31;96249.72;10435864;28;1827;-52
2022/03/15 13:14:46;;;;;;;;;;;;;;;21.95;27.29;96242.88;10438991;28;1938;-49
2022/03/15 13:19:48;;;;;;;;;;;;;;;21.92;27.20;96235.50;10436546;28;2008;-51
2022/03/15 13:24:50;;;;;;;;;;;;;;;21.93;27.41;96234.44;10441353;28;2217;-53
2022/03/15 13:29:52;;;;;;;;;;;;;;;22.01;26.97;96233.88;10438020;28;1825;-50
2022/03/15 13:34:53;;;;;;;;;;;;;;;21.95;27.29;96224.41;10439202;28;1975;-54
2022/03/15 13:39:53;;;;;;;;;;;;;;;21.92;27.29;96219.69;10437839;28;1903;-51
2022/03/15 13:44:59;;;;;;;;;;;;;;;21.91;27.10;96209.41;10440557;28;1977;-52
2022/03/15 13:50:05;;;;;;;;;;;;;;;21.91;27.21;96196.97;10436626;28;1926;-51
2022/03/15 13:55:10;;;;;;;;;;;;;;;21.93;27.35;96192.22;10438149;28;1831;-53
2022/03/15 14:00:14;;;;;;;;;;;;;;;21.90;27.30;96187.50;10434044;28;1989;-51
2022/03/15 14:05:15;;;;;;;;;;;;;;;21.98;27.23;96173.72;10441634;28;1962;-52
2022/03/15 14:10:18;;;;;;;;;;;;;;;21.96;27.75;96178.47;10433111;28;1837;-52
2022/03/15 14:15:19;;;;;;;;;;;;;;;21.95;27.32;96187.44;10442490;28;1811;-51
2022/03/15 14:20:33;;;;;;;;;;;;;;;22.01;27.43;96196.16;10440788;28;1710;-50
2022/03/15 14:25:35;;;;;;;;;;;;;;;21.97;27.54;96184.56;10464247;22;2286;-59
2022/03/15 14:30:43;;;;;;;;;;;;;;;21.94;27.57;96169.25;10512206;28;1951;-60
2022/03/15 14:35:44;;;;;;;;;;;;;;;21.98;27.88;96176.34;10513769;28;1850;-59
2022/03/15 14:40:50;;;;;;;;;;;;;;;22.01;27.58;96167.88;10490813;28;1824;-60
2022/03/15 14:45:56;;;;;;;;;;;;;;;21.98;27.25;96165.81;10482103;28;1894;-60
2022/03/15 14:50:57;;;;;;;;;;;;;;;22.06;27.49;96177.63;10473976;28;1722;-60
2022/03/15 14:55:59;;;;;;;;;;;;;;;22.08;27.47;96175.50;10489799;28;1807;-60
2022/03/15 15:01:00;;;;;;;;;;;;;;;22.13;28.04;96149.88;10478639;28;1853;-60
2022/03/15 15:06:02;;;;;;;;;;;;;;;22.11;27.53;96152.00;10473268;28;2382;-59
2022/03/15 15:11:02;;;;;;;;;;;;;;;22.15;27.24;96137.19;10473612;28;1851;-59
2022/03/15 15:16:03;;;;;;;;;;;;;;;22.24;27.42;96097.78;10478460;28;1901;-57
2022/03/15 15:21:03;;;;;;;;;;;;;;;22.24;27.58;96093.28;10497332;28;1669;-60
2022/03/15 15:26:05;;;;;;;;;;;;;;;22.25;27.44;96081.66;10489013;28;1969;-61
2022/03/15 15:31:06;;;;;;;;;;;;;;;22.20;27.13;96080.91;10473812;28;1859;-59
2022/03/15 15:36:07;;;;;;;;;;;;;;;22.14;26.90;96056.41;10470569;28;1779;-58
2022/03/15 15:41:11;;;;;;;;;;;;;;;22.13;26.63;96039.00;10503461;28;2426;-59
2022/03/15 15:46:19;;;;;;;;;;;;;;;22.09;26.68;96035.31;10480914;28;1965;-60
2022/03/15 15:51:21;;;;;;;;;;;;;;;22.04;26.86;96022.16;10496300;28;1837;-60
2022/03/15 15:56:21;;;;;;;;;;;;;;;22.10;26.64;96015.78;10477926;28;1813;-57
2022/03/15 16:01:29;;;;;;;;;;;;;;;22.12;26.78;95991.72;10477173;28;1906;-60
2022/03/15 16:06:30;;;;;;;;;;;;;;;22.10;27.09;95978.81;10476401;28;1790;-61
2022/03/15 16:11:31;;;;;;;;;;;;;;;22.12;27.32;95971.41;10475422;28;1834;-61
2022/03/15 16:16:33;;;;;;;;;;;;;;;22.13;27.03;95959.78;10463771;28;1936;-61
2022/03/15 16:21:34;;;;;;;;;;;;;;;22.11;27.36;95940.81;10478831;28;1980;-61
2022/03/15 16:26:35;;;;;;;;;;;;;;;22.15;27.08;95933.91;10479290;28;1960;-60
2022/03/15 16:31:39;;;;;;;;;;;;;;;22.10;27.08;95925.22;10478214;28;1956;-61
2022/03/15 16:36:39;;;;;;;;;;;;;;;22.13;26.93;95925.47;10471473;28;1970;-60
2022/03/15 16:41:41;;;;;;;;;;;;;;;22.08;27.02;95914.94;10475877;28;1963;-59
2022/03/15 16:46:41;;;;;;;;;;;;;;;22.09;27.03;95911.22;10470104;28;1841;-58
2022/03/15 16:51:41;;;;;;;;;;;;;;;22.15;26.62;95909.34;10501033;28;1888;-57
2022/03/15 16:56:43;;;;;;;;;;;;;;;22.11;26.80;95906.47;10464807;28;1820;-58
2022/03/15 17:01:44;;;;;;;;;;;;;;;22.09;26.88;95913.88;10478385;28;1910;-59
2022/03/15 17:06:44;;;;;;;;;;;;;;;22.14;26.66;95913.03;10496078;28;1802;-58
2022/03/15 17:11:49;;;;;;;;;;;;;;;22.11;26.60;95924.97;10475343;28;1817;-60
2022/03/15 17:16:53;;;;;;;;;;;;;;;22.13;26.73;95927.31;10474532;28;1910;-57
2022/03/15 17:21:54;;;;;;;;;;;;;;;22.17;26.49;95918.56;10469963;28;2164;-57
2022/03/15 17:26:56;;;;;;;;;;;;;;;22.12;26.48;95931.78;10470463;28;1825;-59
2022/03/15 17:31:57;;;;;;;;;;;;;;;22.11;26.71;95935.53;10480198;28;1519;-56
2022/03/15 17:36:57;;;;;;;;;;;;;;;22.10;27.11;95941.06;10472922;28;1685;-58
2022/03/15 17:41:59;;;;;;;;;;;;;;;22.02;26.82;95936.38;10491517;28;1910;-58
2022/03/15 17:47:07;;;;;;;;;;;;;;;22.00;27.22;95959.63;10472174;28;1844;-58
2022/03/15 17:52:07;;;;;;;;;;;;;;;21.98;27.08;95959.91;10477203;28;1813;-60
2022/03/15 17:57:15;;;;;;;;;;;;;;;22.06;27.20;95950.59;10492944;28;1928;-60
2022/03/15 18:02:20;;;;;;;;;;;;;;;22.03;26.93;95959.09;10473659;28;2053;-60
2022/03/15 18:07:27;;;;;;;;;;;;;;;22.02;26.82;95971.50;10472595;28;1844;-61
2022/03/15 18:12:27;;;;;;;;;;;;;;;22.03;26.93;95969.66;10473759;28;1753;-60
2022/03/15 18:17:35;;;;;;;;;;;;;;;22.07;26.89;95989.91;10467657;28;1538;-59
2022/03/15 18:22:38;;;;;;;;;;;;;;;22.05;27.27;95989.41;10476242;28;1977;-58
2022/03/15 18:27:39;;;;;;;;;;;;;;;22.05;27.06;95991.28;10469714;28;1857;-60
2022/03/15 18:32:40;;;;;;;;;;;;;;;22.06;26.94;95982.28;10474769;28;1515;-60
2022/03/15 18:37:42;;;;;;;;;;;;;;;22.08;26.94;96017.91;10468940;28;1463;-59
2022/03/15 18:42:43;;;;;;;;;;;;;;;22.08;26.98;96015.25;10474328;28;1910;-57
2022/03/15 18:47:44;;;;;;;;;;;;;;;22.10;26.91;96021.06;10471305;28;1554;-61
2022/03/15 18:52:44;;;;;;;;;;;;;;;22.06;27.21;96021.88;10467575;28;1581;-60
2022/03/15 18:57:45;;;;;;;;;;;;;;;22.06;27.22;96035.88;10465721;28;1804;-60
2022/03/15 19:02:45;;;;;;;;;;;;;;;22.12;27.07;96042.69;10462638;28;1971;-58
2022/03/15 19:07:49;;;;;;;;;;;;;;;22.12;27.08;96055.88;10473547;28;1801;-60
2022/03/15 19:12:55;;;;;;;;;;;;;;;22.13;26.80;96046.91;10466903;28;1805;-61
2022/03/15 19:18:00;;;;;;;;;;;;;;;22.11;27.00;96054.31;10472195;28;1933;-59
2022/03/15 19:23:00;;;;;;;;;;;;;;;22.11;27.13;96059.59;10476653;28;1967;-61
2022/03/15 19:28:01;;;;;;;;;;;;;;;22.11;27.05;96064.88;10473054;28;1880;-62
2022/03/15 19:33:01;;;;;;;;;;;;;;;22.10;26.94;96065.94;10491199;28;1909;-61
2022/03/15 19:38:02;;;;;;;;;;;;;;;21.55;28.64;96072.31;10475624;28;1765;-60
2022/03/15 19:43:04;;;;;;;;;;;;;;;20.76;30.87;96072.28;10481625;28;2150;-58
2022/03/15 19:48:05;;;;;;;;;;;;;;;20.22;32.16;96085.25;10480684;28;1832;-58
2022/03/15 19:53:06;;;;;;;;;;;;;;;20.00;32.99;96099.66;10477893;28;2012;-60
2022/03/15 19:58:06;;;;;;;;;;;;;;;20.16;31.78;96111.78;10480656;28;1594;-61
2022/03/15 20:03:06;;;;;;;;;;;;;;;20.80;30.44;96107.59;10480560;28;1902;-61
2022/03/15 20:08:07;;;;;;;;;;;;;;;21.19;29.65;96110.44;10493073;28;1474;-62
2022/03/15 20:13:11;;;;;;;;;;;;;;;21.39;29.23;96107.72;10468544;28;1603;-62
2022/03/15 20:18:12;;;;;;;;;;;;;;;21.54;28.87;96096.31;10476303;28;1643;-62
2022/03/15 20:23:13;;;;;;;;;;;;;;;21.61;28.62;96115.28;10475819;28;1991;-61
2022/03/15 20:28:17;;;;;;;;;;;;;;;21.68;28.50;96118.41;10480137;22;2435;-40
2022/03/15 20:33:18;;;;;;;;;;;;;;;21.75;28.14;96113.63;10432391;28;1414;-40
2022/03/15 20:38:19;;;;;;;;;;;;;;;21.85;28.24;96121.53;10437236;28;1491;-39
2022/03/15 20:48:40;;;;;;;;;;;;;;;21.88;27.68;96132.31;10425082;28;1461;-39
2022/03/15 20:53:43;;;;;;;;;;;;;;;21.90;27.23;96133.91;10428775;28;1531;-38
2022/03/15 20:58:45;;;;;;;;;;;;;;;21.92;27.47;96142.34;10431430;28;1798;-40
2022/03/15 21:03:49;;;;;;;;;;;;;;;21.94;27.35;96138.38;10422485;28;2023;-41
2022/03/15 21:08:50;;;;;;;;;;;;;;;21.97;26.89;96143.09;10428758;28;2358;-46
2022/03/15 21:13:50;;;;;;;;;;;;;;;22.00;27.09;96150.47;10426268;28;1511;-42
2022/03/15 21:18:52;;;;;;;;;;;;;;;22.02;26.88;96150.19;10420659;28;1857;-40
2022/03/15 21:23:53;;;;;;;;;;;;;;;22.05;27.10;96153.06;10426174;28;1989;-44
2022/03/15 21:28:55;;;;;;;;;;;;;;;22.07;26.59;96148.31;10422506;28;1862;-39
2022/03/15 21:33:58;;;;;;;;;;;;;;;22.11;26.97;96154.66;10435290;28;2210;-43
2022/03/15 21:39:02;;;;;;;;;;;;;;;22.11;26.91;96153.84;10431734;28;1857;-42
2022/03/15 21:44:04;;;;;;;;;;;;;;;22.14;27.26;96156.72;10438760;28;1910;-44
2022/03/15 21:49:05;;;;;;;;;;;;;;;22.16;27.48;96162.53;10428590;28;1834;-42
2022/03/15 21:54:07;;;;;;;;;;;;;;;22.16;28.16;96157.25;10424227;28;1810;-43
2022/03/15 21:59:08;;;;;;;;;;;;;;;22.18;28.47;96157.75;10419970;28;1818;-46
2022/03/15 22:04:08;;;;;;;;;;;;;;;22.13;28.66;96147.25;10419492;28;2104;-44
2022/03/15 22:09:09;;;;;;;;;;;;;;;22.14;28.99;96145.38;10419397;28;2050;-41
2022/03/15 22:14:10;;;;;;;;;;;;;;;22.13;28.91;96152.53;10417365;28;1855;-43
2022/03/15 22:19:10;;;;;;;;;;;;;;;22.10;29.27;96147.78;10422547;28;1995;-40
2022/03/15 22:24:11;;;;;;;;;;;;;;;22.07;29.09;96148.31;10426855;28;2008;-40
2022/03/15 22:29:12;;;;;;;;;;;;;;;22.06;29.30;96152.03;10426189;28;1825;-40
2022/03/15 23:16:26;;;;;;;;;;;;;;;21.86;30.01;96152.13;10431626;28;1822;-42
2022/03/15 23:32:08;;;;;;;;;;;;;;;21.88;29.85;96165.06;10439289;28;1825;-40
2022/03/15 23:37:10;;;;;;;;;;;;;;;21.91;29.58;96162.66;10427143;28;1795;-40
2022/03/15 23:42:11;;;;;;;;;;;;;;;21.91;29.66;96175.84;10424632;28;1969;-41
2022/03/15 23:47:11;;;;;;;;;;;;;;;21.91;29.86;96173.22;10426394;28;1841;-39
2022/03/15 23:52:12;;;;;;;;;;;;;;;21.90;29.71;96184.84;10419264;28;1837;-40
2022/03/15 23:57:12;;;;;;;;;;;;;;;21.94;29.53;96196.44;10423648;28;1854;-40
